CheckWX is a tool to help pilots better visualize weather data.  It is not intended as a substitute for an official pre-flight weather briefing.

09:29:33 UTC

KSHL METAR
Sheldon Regional Airport
Sheldon, Iowa, USA
Current

35 mins ago

KSHL 200855Z AUTO 12012KT 3/4SM -SN OVC003 M07/M07 A2985 RMK AO2
Observed
Feb-20 @ 08:55 UTC
Wind
  • 120° at 12 KTS
Visibility
1,207 meters
Flight Rules
LIFR
Conditions
Light Snow
Cloud Levels
  • Overcast at 300' AGL
Temperature
-7°C / 19°F
Dewpoint
-7°C / 19°F
Humidity
100%
Altimeter
29.85" Hg
Pressure
1010.82 hPa
Previous

55 mins ago

KSHL 200835Z AUTO 12010KT 3/4SM -SN OVC003 M07/M07 A2988 RMK AO2
Observed
Feb-20 @ 08:35 UTC
Wind
  • 120° at 10 KTS
Visibility
1,207 meters
Flight Rules
LIFR
Conditions
Light Snow
Cloud Levels
  • Overcast at 300' AGL
Temperature
-7°C / 19°F
Dewpoint
-7°C / 19°F
Humidity
100%
Altimeter
29.88" Hg
Pressure
1011.82 hPa
Previous

1 hour ago

KSHL 200815Z AUTO 10010KT 1SM -SN OVC003 M08/M08 A2987 RMK AO2
Observed
Feb-20 @ 08:15 UTC
Wind
  • 100° at 10 KTS
Visibility
1,609 meters
Flight Rules
LIFR
Conditions
Light Snow
Cloud Levels
  • Overcast at 300' AGL
Temperature
-8°C / 18°F
Dewpoint
-8°C / 18°F
Humidity
100%
Altimeter
29.87" Hg
Pressure
1011.52 hPa